sensor_id;sensor_type;location;lat;lon;timestamp;P1;durP1;ratioP1;P2;durP2;ratioP2
72517;SDS011;60540;51.178;6.738;2022-08-21T00:00:22;8.52;;;4.57;;
72517;SDS011;60540;51.178;6.738;2022-08-21T00:03:04;5.90;;;3.33;;
72517;SDS011;60540;51.178;6.738;2022-08-21T00:05:32;9.85;;;4.28;;
72517;SDS011;60540;51.178;6.738;2022-08-21T00:08:00;6.72;;;4.13;;
72517;SDS011;60540;51.178;6.738;2022-08-21T00:10:26;8.32;;;3.90;;
72517;SDS011;60540;51.178;6.738;2022-08-21T00:12:51;8.70;;;3.80;;
72517;SDS011;60540;51.178;6.738;2022-08-21T00:15:19;7.38;;;3.90;;
72517;SDS011;60540;51.178;6.738;2022-08-21T00:17:47;6.60;;;3.72;;
72517;SDS011;60540;51.178;6.738;2022-08-21T00:20:13;7.60;;;4.20;;
72517;SDS011;60540;51.178;6.738;2022-08-21T00:22:40;6.82;;;3.67;;
72517;SDS011;60540;51.178;6.738;2022-08-21T00:25:06;7.93;;;4.25;;
72517;SDS011;60540;51.178;6.738;2022-08-21T00:27:33;6.70;;;3.90;;
72517;SDS011;60540;51.178;6.738;2022-08-21T00:29:59;5.50;;;3.60;;
72517;SDS011;60540;51.178;6.738;2022-08-21T00:32:25;7.65;;;4.10;;
72517;SDS011;60540;51.178;6.738;2022-08-21T00:34:52;6.63;;;3.65;;
72517;SDS011;60540;51.178;6.738;2022-08-21T00:37:18;8.30;;;4.20;;
72517;SDS011;60540;51.178;6.738;2022-08-21T00:39:44;8.73;;;4.63;;
72517;SDS011;60540;51.178;6.738;2022-08-21T00:42:10;6.50;;;3.78;;
72517;SDS011;60540;51.178;6.738;2022-08-21T00:44:40;8.65;;;4.28;;
72517;SDS011;60540;51.178;6.738;2022-08-21T00:47:07;7.22;;;4.03;;
72517;SDS011;60540;51.178;6.738;2022-08-21T00:49:33;8.70;;;3.60;;
72517;SDS011;60540;51.178;6.738;2022-08-21T00:51:59;6.43;;;4.53;;
72517;SDS011;60540;51.178;6.738;2022-08-21T00:54:25;7.55;;;4.07;;
72517;SDS011;60540;51.178;6.738;2022-08-21T00:56:56;7.05;;;3.92;;
72517;SDS011;60540;51.178;6.738;2022-08-21T00:59:22;9.05;;;4.18;;
72517;SDS011;60540;51.178;6.738;2022-08-21T01:01:48;8.32;;;5.03;;
72517;SDS011;60540;51.178;6.738;2022-08-21T01:04:15;8.13;;;4.85;;
72517;SDS011;60540;51.178;6.738;2022-08-21T01:06:41;8.23;;;5.05;;
72517;SDS011;60540;51.178;6.738;2022-08-21T01:09:07;7.88;;;4.88;;
72517;SDS011;60540;51.178;6.738;2022-08-21T01:11:34;7.85;;;4.43;;
72517;SDS011;60540;51.178;6.738;2022-08-21T01:13:59;8.93;;;5.20;;
72517;SDS011;60540;51.178;6.738;2022-08-21T01:16:26;8.75;;;4.38;;
72517;SDS011;60540;51.178;6.738;2022-08-21T01:18:51;9.23;;;4.75;;
72517;SDS011;60540;51.178;6.738;2022-08-21T01:21:24;8.18;;;4.43;;
72517;SDS011;60540;51.178;6.738;2022-08-21T01:23:52;7.57;;;4.68;;
72517;SDS011;60540;51.178;6.738;2022-08-21T01:28:52;9.43;;;4.05;;
72517;SDS011;60540;51.178;6.738;2022-08-21T01:31:22;7.32;;;4.43;;
72517;SDS011;60540;51.178;6.738;2022-08-21T01:33:49;7.75;;;4.53;;
72517;SDS011;60540;51.178;6.738;2022-08-21T01:36:14;7.15;;;4.70;;
72517;SDS011;60540;51.178;6.738;2022-08-21T01:38:40;7.38;;;4.95;;
72517;SDS011;60540;51.178;6.738;2022-08-21T01:41:05;7.38;;;4.47;;
72517;SDS011;60540;51.178;6.738;2022-08-21T01:43:31;6.65;;;4.45;;
72517;SDS011;60540;51.178;6.738;2022-08-21T01:45:57;6.70;;;4.15;;
72517;SDS011;60540;51.178;6.738;2022-08-21T01:48:22;6.43;;;4.30;;
72517;SDS011;60540;51.178;6.738;2022-08-21T01:50:48;6.25;;;4.07;;
72517;SDS011;60540;51.178;6.738;2022-08-21T01:53:14;8.05;;;4.28;;
72517;SDS011;60540;51.178;6.738;2022-08-21T01:55:41;7.78;;;4.13;;
72517;SDS011;60540;51.178;6.738;2022-08-21T01:58:07;7.85;;;4.80;;
72517;SDS011;60540;51.178;6.738;2022-08-21T02:00:33;7.35;;;4.75;;
72517;SDS011;60540;51.178;6.738;2022-08-21T02:02:58;9.98;;;5.32;;
72517;SDS011;60540;51.178;6.738;2022-08-21T02:05:25;7.70;;;4.97;;
72517;SDS011;60540;51.178;6.738;2022-08-21T02:07:51;7.40;;;4.63;;
72517;SDS011;60540;51.178;6.738;2022-08-21T02:12:46;9.95;;;5.07;;
72517;SDS011;60540;51.178;6.738;2022-08-21T02:15:12;8.75;;;5.88;;
72517;SDS011;60540;51.178;6.738;2022-08-21T02:17:42;8.05;;;5.70;;
72517;SDS011;60540;51.178;6.738;2022-08-21T02:20:10;7.88;;;5.57;;
72517;SDS011;60540;51.178;6.738;2022-08-21T02:22:37;8.15;;;5.10;;
72517;SDS011;60540;51.178;6.738;2022-08-21T02:25:03;9.80;;;4.97;;
72517;SDS011;60540;51.178;6.738;2022-08-21T02:27:29;9.75;;;5.13;;
72517;SDS011;60540;51.178;6.738;2022-08-21T02:29:55;7.80;;;4.82;;
72517;SDS011;60540;51.178;6.738;2022-08-21T02:32:22;7.85;;;4.60;;
72517;SDS011;60540;51.178;6.738;2022-08-21T02:34:47;9.75;;;5.00;;
72517;SDS011;60540;51.178;6.738;2022-08-21T02:37:14;10.25;;;5.72;;
72517;SDS011;60540;51.178;6.738;2022-08-21T02:39:39;9.55;;;5.18;;
72517;SDS011;60540;51.178;6.738;2022-08-21T02:42:05;7.55;;;5.30;;
72517;SDS011;60540;51.178;6.738;2022-08-21T02:44:30;12.88;;;5.72;;
72517;SDS011;60540;51.178;6.738;2022-08-21T02:46:56;8.60;;;5.25;;
72517;SDS011;60540;51.178;6.738;2022-08-21T02:49:22;8.65;;;5.20;;
72517;SDS011;60540;51.178;6.738;2022-08-21T02:51:48;8.32;;;5.25;;
72517;SDS011;60540;51.178;6.738;2022-08-21T02:54:13;7.20;;;4.95;;
72517;SDS011;60540;51.178;6.738;2022-08-21T02:56:39;7.68;;;5.18;;
72517;SDS011;60540;51.178;6.738;2022-08-21T02:59:04;10.55;;;5.93;;
72517;SDS011;60540;51.178;6.738;2022-08-21T03:01:30;9.88;;;5.80;;
72517;SDS011;60540;51.178;6.738;2022-08-21T03:03:55;8.52;;;5.22;;
72517;SDS011;60540;51.178;6.738;2022-08-21T03:06:22;7.65;;;5.15;;
72517;SDS011;60540;51.178;6.738;2022-08-21T03:08:48;9.85;;;5.22;;
72517;SDS011;60540;51.178;6.738;2022-08-21T03:11:14;7.72;;;5.03;;
72517;SDS011;60540;51.178;6.738;2022-08-21T03:13:40;9.48;;;5.03;;
72517;SDS011;60540;51.178;6.738;2022-08-21T03:16:06;9.65;;;5.10;;
72517;SDS011;60540;51.178;6.738;2022-08-21T03:18:32;10.85;;;5.22;;
72517;SDS011;60540;51.178;6.738;2022-08-21T03:20:57;7.60;;;5.15;;
72517;SDS011;60540;51.178;6.738;2022-08-21T03:23:23;7.78;;;5.53;;
72517;SDS011;60540;51.178;6.738;2022-08-21T03:25:48;8.75;;;5.25;;
72517;SDS011;60540;51.178;6.738;2022-08-21T03:28:18;8.40;;;5.30;;
72517;SDS011;60540;51.178;6.738;2022-08-21T03:30:46;8.90;;;5.72;;
72517;SDS011;60540;51.178;6.738;2022-08-21T03:33:13;10.00;;;5.18;;
72517;SDS011;60540;51.178;6.738;2022-08-21T03:35:39;8.65;;;5.57;;
72517;SDS011;60540;51.178;6.738;2022-08-21T03:38:06;7.85;;;5.45;;
72517;SDS011;60540;51.178;6.738;2022-08-21T03:40:32;8.77;;;5.70;;
72517;SDS011;60540;51.178;6.738;2022-08-21T03:42:58;11.13;;;6.25;;
72517;SDS011;60540;51.178;6.738;2022-08-21T03:45:24;8.55;;;5.60;;
72517;SDS011;60540;51.178;6.738;2022-08-21T03:47:59;7.75;;;5.30;;
72517;SDS011;60540;51.178;6.738;2022-08-21T03:50:27;13.77;;;6.05;;
72517;SDS011;60540;51.178;6.738;2022-08-21T03:52:55;9.07;;;4.80;;
72517;SDS011;60540;51.178;6.738;2022-08-21T03:55:20;7.10;;;5.03;;
72517;SDS011;60540;51.178;6.738;2022-08-21T03:57:47;7.53;;;5.20;;
72517;SDS011;60540;51.178;6.738;2022-08-21T04:00:13;9.35;;;4.75;;
72517;SDS011;60540;51.178;6.738;2022-08-21T04:02:39;7.68;;;5.50;;
72517;SDS011;60540;51.178;6.738;2022-08-21T04:07:31;7.35;;;4.90;;
72517;SDS011;60540;51.178;6.738;2022-08-21T04:09:57;10.60;;;5.97;;
72517;SDS011;60540;51.178;6.738;2022-08-21T04:12:23;9.68;;;5.70;;
72517;SDS011;60540;51.178;6.738;2022-08-21T04:14:48;10.48;;;5.90;;
72517;SDS011;60540;51.178;6.738;2022-08-21T04:17:16;11.07;;;6.30;;
72517;SDS011;60540;51.178;6.738;2022-08-21T04:19:43;9.70;;;5.53;;
72517;SDS011;60540;51.178;6.738;2022-08-21T04:22:08;10.07;;;6.10;;
72517;SDS011;60540;51.178;6.738;2022-08-21T04:24:34;11.88;;;6.55;;
72517;SDS011;60540;51.178;6.738;2022-08-21T04:26:59;9.70;;;5.97;;
72517;SDS011;60540;51.178;6.738;2022-08-21T04:29:25;11.02;;;6.25;;
72517;SDS011;60540;51.178;6.738;2022-08-21T04:31:51;10.98;;;6.38;;
72517;SDS011;60540;51.178;6.738;2022-08-21T04:34:17;9.27;;;5.63;;
72517;SDS011;60540;51.178;6.738;2022-08-21T04:36:43;11.00;;;6.28;;
72517;SDS011;60540;51.178;6.738;2022-08-21T04:39:09;10.07;;;5.82;;
72517;SDS011;60540;51.178;6.738;2022-08-21T04:41:35;7.97;;;6.63;;
72517;SDS011;60540;51.178;6.738;2022-08-21T04:44:02;12.50;;;6.32;;
72517;SDS011;60540;51.178;6.738;2022-08-21T04:48:53;9.10;;;5.68;;
72517;SDS011;60540;51.178;6.738;2022-08-21T04:51:22;9.55;;;5.85;;
72517;SDS011;60540;51.178;6.738;2022-08-21T04:53:50;12.73;;;6.30;;
72517;SDS011;60540;51.178;6.738;2022-08-21T04:56:25;10.35;;;5.78;;
72517;SDS011;60540;51.178;6.738;2022-08-21T04:58:53;10.57;;;6.20;;
72517;SDS011;60540;51.178;6.738;2022-08-21T05:01:22;10.07;;;6.32;;
72517;SDS011;60540;51.178;6.738;2022-08-21T05:03:50;11.45;;;6.18;;
72517;SDS011;60540;51.178;6.738;2022-08-21T05:06:18;10.88;;;6.78;;
72517;SDS011;60540;51.178;6.738;2022-08-21T05:08:44;11.18;;;6.30;;
72517;SDS011;60540;51.178;6.738;2022-08-21T05:11:11;8.40;;;6.65;;
72517;SDS011;60540;51.178;6.738;2022-08-21T05:13:37;11.10;;;6.97;;
72517;SDS011;60540;51.178;6.738;2022-08-21T05:16:02;9.75;;;6.35;;
72517;SDS011;60540;51.178;6.738;2022-08-21T05:18:28;9.93;;;7.13;;
72517;SDS011;60540;51.178;6.738;2022-08-21T05:20:54;11.82;;;7.00;;
72517;SDS011;60540;51.178;6.738;2022-08-21T05:23:19;13.00;;;7.07;;
72517;SDS011;60540;51.178;6.738;2022-08-21T05:25:45;10.20;;;7.47;;
72517;SDS011;60540;51.178;6.738;2022-08-21T05:28:11;11.38;;;7.30;;
72517;SDS011;60540;51.178;6.738;2022-08-21T05:30:37;10.98;;;6.45;;
72517;SDS011;60540;51.178;6.738;2022-08-21T05:33:05;11.27;;;7.32;;
72517;SDS011;60540;51.178;6.738;2022-08-21T05:35:31;11.02;;;7.43;;
72517;SDS011;60540;51.178;6.738;2022-08-21T05:37:57;11.50;;;7.35;;
72517;SDS011;60540;51.178;6.738;2022-08-21T05:40:23;11.77;;;7.13;;
72517;SDS011;60540;51.178;6.738;2022-08-21T05:42:50;12.15;;;7.55;;
72517;SDS011;60540;51.178;6.738;2022-08-21T05:45:16;14.30;;;7.32;;
72517;SDS011;60540;51.178;6.738;2022-08-21T05:47:42;12.82;;;6.88;;
72517;SDS011;60540;51.178;6.738;2022-08-21T05:50:08;10.98;;;7.03;;
72517;SDS011;60540;51.178;6.738;2022-08-21T05:52:34;12.35;;;7.03;;
72517;SDS011;60540;51.178;6.738;2022-08-21T05:54:59;14.15;;;7.18;;
72517;SDS011;60540;51.178;6.738;2022-08-21T05:57:25;11.48;;;6.60;;
72517;SDS011;60540;51.178;6.738;2022-08-21T05:59:51;12.75;;;6.43;;
72517;SDS011;60540;51.178;6.738;2022-08-21T06:02:18;14.00;;;6.53;;
72517;SDS011;60540;51.178;6.738;2022-08-21T06:04:44;10.55;;;6.45;;
72517;SDS011;60540;51.178;6.738;2022-08-21T06:07:10;10.20;;;6.07;;
72517;SDS011;60540;51.178;6.738;2022-08-21T06:09:36;9.02;;;5.65;;
72517;SDS011;60540;51.178;6.738;2022-08-21T06:14:35;10.32;;;6.25;;
72517;SDS011;60540;51.178;6.738;2022-08-21T06:17:02;12.55;;;6.15;;
72517;SDS011;60540;51.178;6.738;2022-08-21T06:19:28;9.73;;;5.30;;
72517;SDS011;60540;51.178;6.738;2022-08-21T06:21:54;14.40;;;5.65;;
72517;SDS011;60540;51.178;6.738;2022-08-21T06:24:19;12.20;;;5.72;;
72517;SDS011;60540;51.178;6.738;2022-08-21T06:26:45;12.55;;;4.97;;
72517;SDS011;60540;51.178;6.738;2022-08-21T06:29:12;8.85;;;4.97;;
72517;SDS011;60540;51.178;6.738;2022-08-21T06:31:41;7.55;;;4.93;;
72517;SDS011;60540;51.178;6.738;2022-08-21T06:34:07;9.10;;;4.18;;
72517;SDS011;60540;51.178;6.738;2022-08-21T06:36:33;12.18;;;5.05;;
72517;SDS011;60540;51.178;6.738;2022-08-21T06:38:59;7.22;;;4.43;;
72517;SDS011;60540;51.178;6.738;2022-08-21T06:41:25;8.02;;;4.22;;
72517;SDS011;60540;51.178;6.738;2022-08-21T06:43:50;7.43;;;3.90;;
72517;SDS011;60540;51.178;6.738;2022-08-21T06:46:16;7.25;;;4.25;;
72517;SDS011;60540;51.178;6.738;2022-08-21T06:48:41;6.50;;;3.78;;
72517;SDS011;60540;51.178;6.738;2022-08-21T06:51:07;9.82;;;4.50;;
72517;SDS011;60540;51.178;6.738;2022-08-21T06:53:33;8.93;;;3.92;;
72517;SDS011;60540;51.178;6.738;2022-08-21T06:55:59;12.00;;;4.55;;
72517;SDS011;60540;51.178;6.738;2022-08-21T06:58:24;8.43;;;3.88;;
72517;SDS011;60540;51.178;6.738;2022-08-21T07:00:50;8.35;;;3.80;;
72517;SDS011;60540;51.178;6.738;2022-08-21T07:03:24;7.75;;;3.63;;
72517;SDS011;60540;51.178;6.738;2022-08-21T07:05:54;8.73;;;3.65;;
72517;SDS011;60540;51.178;6.738;2022-08-21T07:08:19;10.07;;;3.92;;
72517;SDS011;60540;51.178;6.738;2022-08-21T07:10:45;6.32;;;3.53;;
72517;SDS011;60540;51.178;6.738;2022-08-21T07:13:12;7.68;;;3.17;;
72517;SDS011;60540;51.178;6.738;2022-08-21T07:15:38;10.05;;;3.58;;
72517;SDS011;60540;51.178;6.738;2022-08-21T07:18:03;7.45;;;3.25;;
72517;SDS011;60540;51.178;6.738;2022-08-21T07:20:30;8.38;;;3.17;;
72517;SDS011;60540;51.178;6.738;2022-08-21T07:22:56;8.18;;;2.80;;
72517;SDS011;60540;51.178;6.738;2022-08-21T07:25:23;8.35;;;2.63;;
72517;SDS011;60540;51.178;6.738;2022-08-21T07:27:49;6.10;;;2.35;;
72517;SDS011;60540;51.178;6.738;2022-08-21T07:30:14;6.60;;;2.17;;
72517;SDS011;60540;51.178;6.738;2022-08-21T07:32:40;8.45;;;2.50;;
72517;SDS011;60540;51.178;6.738;2022-08-21T07:35:05;8.80;;;3.17;;
72517;SDS011;60540;51.178;6.738;2022-08-21T07:37:32;4.18;;;1.83;;
72517;SDS011;60540;51.178;6.738;2022-08-21T07:39:57;4.65;;;1.90;;
72517;SDS011;60540;51.178;6.738;2022-08-21T07:42:23;7.35;;;2.13;;
72517;SDS011;60540;51.178;6.738;2022-08-21T07:44:49;6.63;;;2.22;;
72517;SDS011;60540;51.178;6.738;2022-08-21T07:47:14;6.50;;;1.90;;
72517;SDS011;60540;51.178;6.738;2022-08-21T07:49:40;4.88;;;1.73;;
72517;SDS011;60540;51.178;6.738;2022-08-21T07:52:05;4.70;;;2.00;;
72517;SDS011;60540;51.178;6.738;2022-08-21T07:54:31;3.97;;;2.13;;
72517;SDS011;60540;51.178;6.738;2022-08-21T07:56:57;4.70;;;1.90;;
72517;SDS011;60540;51.178;6.738;2022-08-21T07:59:22;7.35;;;2.03;;
72517;SDS011;60540;51.178;6.738;2022-08-21T08:01:48;3.85;;;1.52;;
72517;SDS011;60540;51.178;6.738;2022-08-21T08:04:14;4.65;;;2.00;;
72517;SDS011;60540;51.178;6.738;2022-08-21T08:06:41;7.07;;;1.77;;
72517;SDS011;60540;51.178;6.738;2022-08-21T08:09:07;5.15;;;1.60;;
72517;SDS011;60540;51.178;6.738;2022-08-21T08:11:32;4.13;;;1.60;;
72517;SDS011;60540;51.178;6.738;2022-08-21T08:13:58;5.60;;;1.40;;
72517;SDS011;60540;51.178;6.738;2022-08-21T08:16:25;5.38;;;1.60;;
72517;SDS011;60540;51.178;6.738;2022-08-21T08:18:51;6.00;;;1.50;;
72517;SDS011;60540;51.178;6.738;2022-08-21T08:21:17;4.70;;;1.20;;
72517;SDS011;60540;51.178;6.738;2022-08-21T08:23:45;6.18;;;1.40;;
72517;SDS011;60540;51.178;6.738;2022-08-21T08:26:11;3.60;;;1.30;;
72517;SDS011;60540;51.178;6.738;2022-08-21T08:28:37;4.75;;;1.40;;
72517;SDS011;60540;51.178;6.738;2022-08-21T08:31:03;4.75;;;1.30;;
72517;SDS011;60540;51.178;6.738;2022-08-21T08:33:29;4.45;;;1.50;;
72517;SDS011;60540;51.178;6.738;2022-08-21T08:35:55;4.10;;;1.30;;
72517;SDS011;60540;51.178;6.738;2022-08-21T08:38:21;3.53;;;1.30;;
72517;SDS011;60540;51.178;6.738;2022-08-21T08:43:38;2.65;;;1.05;;
72517;SDS011;60540;51.178;6.738;2022-08-21T08:46:06;6.18;;;1.20;;
72517;SDS011;60540;51.178;6.738;2022-08-21T08:48:42;2.88;;;1.00;;
72517;SDS011;60540;51.178;6.738;2022-08-21T08:54:14;3.53;;;1.50;;
72517;SDS011;60540;51.178;6.738;2022-08-21T08:56:43;4.40;;;1.30;;
72517;SDS011;60540;51.178;6.738;2022-08-21T08:59:53;4.80;;;1.52;;
72517;SDS011;60540;51.178;6.738;2022-08-21T09:02:02;3.35;;;1.27;;
72517;SDS011;60540;51.178;6.738;2022-08-21T09:04:28;3.17;;;1.35;;
72517;SDS011;60540;51.178;6.738;2022-08-21T09:06:57;3.67;;;1.70;;
72517;SDS011;60540;51.178;6.738;2022-08-21T09:12:16;4.63;;;1.52;;
72517;SDS011;60540;51.178;6.738;2022-08-21T09:20:34;4.47;;;1.52;;
72517;SDS011;60540;51.178;6.738;2022-08-21T09:23:13;5.18;;;1.83;;
72517;SDS011;60540;51.178;6.738;2022-08-21T09:26:11;5.38;;;1.88;;
72517;SDS011;60540;51.178;6.738;2022-08-21T09:28:40;6.95;;;1.63;;
72517;SDS011;60540;51.178;6.738;2022-08-21T09:31:21;3.15;;;1.80;;
72517;SDS011;60540;51.178;6.738;2022-08-21T09:33:56;4.85;;;1.67;;
72517;SDS011;60540;51.178;6.738;2022-08-21T09:36:45;5.50;;;1.90;;
72517;SDS011;60540;51.178;6.738;2022-08-21T09:39:21;4.22;;;1.60;;
72517;SDS011;60540;51.178;6.738;2022-08-21T09:41:55;5.35;;;1.52;;
72517;SDS011;60540;51.178;6.738;2022-08-21T09:44:30;3.40;;;1.25;;
72517;SDS011;60540;51.178;6.738;2022-08-21T09:46:57;5.25;;;1.38;;
72517;SDS011;60540;51.178;6.738;2022-08-21T09:49:26;5.82;;;1.52;;
72517;SDS011;60540;51.178;6.738;2022-08-21T09:51:56;6.57;;;1.70;;
72517;SDS011;60540;51.178;6.738;2022-08-21T09:54:26;4.13;;;1.48;;
72517;SDS011;60540;51.178;6.738;2022-08-21T09:57:06;3.65;;;1.30;;
72517;SDS011;60540;51.178;6.738;2022-08-21T10:00:07;6.15;;;1.45;;
72517;SDS011;60540;51.178;6.738;2022-08-21T10:03:16;3.88;;;1.50;;
72517;SDS011;60540;51.178;6.738;2022-08-21T10:05:51;5.50;;;1.50;;
72517;SDS011;60540;51.178;6.738;2022-08-21T10:08:23;5.78;;;1.65;;
72517;SDS011;60540;51.178;6.738;2022-08-21T10:10:52;4.07;;;1.40;;
72517;SDS011;60540;51.178;6.738;2022-08-21T10:18:42;4.60;;;1.40;;
72517;SDS011;60540;51.178;6.738;2022-08-21T10:26:43;4.05;;;1.40;;
72517;SDS011;60540;51.178;6.738;2022-08-21T10:31:54;5.60;;;1.73;;
72517;SDS011;60540;51.178;6.738;2022-08-21T10:48:35;5.13;;;1.70;;
72517;SDS011;60540;51.178;6.738;2022-08-21T10:54:00;4.75;;;1.75;;
72517;SDS011;60540;51.178;6.738;2022-08-21T10:56:29;5.35;;;1.13;;
72517;SDS011;60540;51.178;6.738;2022-08-21T11:04:26;6.57;;;1.40;;
72517;SDS011;60540;51.178;6.738;2022-08-21T11:07:00;4.50;;;1.40;;
72517;SDS011;60540;51.178;6.738;2022-08-21T11:09:29;3.58;;;1.42;;
72517;SDS011;60540;51.178;6.738;2022-08-21T11:12:00;4.85;;;1.30;;
72517;SDS011;60540;51.178;6.738;2022-08-21T11:14:41;5.75;;;1.42;;
72517;SDS011;60540;51.178;6.738;2022-08-21T11:17:13;4.53;;;1.27;;
72517;SDS011;60540;51.178;6.738;2022-08-21T11:19:46;3.58;;;1.40;;
72517;SDS011;60540;51.178;6.738;2022-08-21T11:22:19;4.60;;;1.50;;
72517;SDS011;60540;51.178;6.738;2022-08-21T11:24:55;5.85;;;1.70;;
72517;SDS011;60540;51.178;6.738;2022-08-21T11:27:36;5.28;;;1.63;;
72517;SDS011;60540;51.178;6.738;2022-08-21T11:30:07;5.25;;;1.35;;
72517;SDS011;60540;51.178;6.738;2022-08-21T11:37:49;2.95;;;1.15;;
72517;SDS011;60540;51.178;6.738;2022-08-21T11:51:10;5.57;;;1.27;;
72517;SDS011;60540;51.178;6.738;2022-08-21T11:56:17;3.28;;;1.13;;
72517;SDS011;60540;51.178;6.738;2022-08-21T11:58:56;2.72;;;1.05;;
72517;SDS011;60540;51.178;6.738;2022-08-21T12:01:28;3.00;;;1.00;;
72517;SDS011;60540;51.178;6.738;2022-08-21T12:04:01;4.20;;;1.40;;
72517;SDS011;60540;51.178;6.738;2022-08-21T12:06:32;3.60;;;1.45;;
72517;SDS011;60540;51.178;6.738;2022-08-21T12:09:04;5.38;;;1.67;;
72517;SDS011;60540;51.178;6.738;2022-08-21T12:12:12;2.90;;;1.08;;
72517;SDS011;60540;51.178;6.738;2022-08-21T12:14:42;3.92;;;1.35;;
72517;SDS011;60540;51.178;6.738;2022-08-21T12:17:09;4.80;;;1.20;;
72517;SDS011;60540;51.178;6.738;2022-08-21T12:19:43;3.65;;;1.30;;
72517;SDS011;60540;51.178;6.738;2022-08-21T12:22:10;3.55;;;1.27;;
72517;SDS011;60540;51.178;6.738;2022-08-21T12:24:47;4.55;;;1.20;;
72517;SDS011;60540;51.178;6.738;2022-08-21T12:30:00;4.03;;;1.10;;
72517;SDS011;60540;51.178;6.738;2022-08-21T12:35:09;4.10;;;1.20;;
72517;SDS011;60540;51.178;6.738;2022-08-21T12:37:45;5.78;;;1.42;;
72517;SDS011;60540;51.178;6.738;2022-08-21T12:40:27;3.47;;;1.20;;
72517;SDS011;60540;51.178;6.738;2022-08-21T12:43:06;2.53;;;1.00;;
72517;SDS011;60540;51.178;6.738;2022-08-21T12:45:42;2.38;;;0.93;;
72517;SDS011;60540;51.178;6.738;2022-08-21T12:48:18;2.85;;;1.15;;
72517;SDS011;60540;51.178;6.738;2022-08-21T12:50:58;3.00;;;0.88;;
72517;SDS011;60540;51.178;6.738;2022-08-21T12:56:09;4.97;;;1.23;;
72517;SDS011;60540;51.178;6.738;2022-08-21T12:58:39;4.68;;;1.20;;
72517;SDS011;60540;51.178;6.738;2022-08-21T13:01:07;3.03;;;1.10;;
72517;SDS011;60540;51.178;6.738;2022-08-21T13:03:42;3.13;;;1.00;;
72517;SDS011;60540;51.178;6.738;2022-08-21T13:08:37;3.08;;;0.90;;
72517;SDS011;60540;51.178;6.738;2022-08-21T13:13:29;1.98;;;0.70;;
72517;SDS011;60540;51.178;6.738;2022-08-21T13:18:29;3.15;;;1.15;;
72517;SDS011;60540;51.178;6.738;2022-08-21T13:23:30;3.00;;;1.00;;
72517;SDS011;60540;51.178;6.738;2022-08-21T13:28:21;3.33;;;1.00;;
72517;SDS011;60540;51.178;6.738;2022-08-21T13:30:49;3.95;;;1.00;;
72517;SDS011;60540;51.178;6.738;2022-08-21T13:33:17;3.05;;;1.10;;
72517;SDS011;60540;51.178;6.738;2022-08-21T13:38:29;3.75;;;1.30;;
72517;SDS011;60540;51.178;6.738;2022-08-21T13:41:08;3.15;;;1.05;;
72517;SDS011;60540;51.178;6.738;2022-08-21T13:43:35;3.42;;;0.93;;
72517;SDS011;60540;51.178;6.738;2022-08-21T13:46:02;4.15;;;1.60;;
72517;SDS011;60540;51.178;6.738;2022-08-21T13:48:33;3.97;;;1.27;;
72517;SDS011;60540;51.178;6.738;2022-08-21T13:50:59;3.17;;;1.27;;
72517;SDS011;60540;51.178;6.738;2022-08-21T13:53:34;3.13;;;1.10;;
72517;SDS011;60540;51.178;6.738;2022-08-21T13:56:01;4.30;;;1.30;;
72517;SDS011;60540;51.178;6.738;2022-08-21T13:58:29;4.47;;;1.30;;
72517;SDS011;60540;51.178;6.738;2022-08-21T14:00:55;4.07;;;1.20;;
72517;SDS011;60540;51.178;6.738;2022-08-21T14:03:31;3.80;;;1.05;;
72517;SDS011;60540;51.178;6.738;2022-08-21T14:05:59;3.58;;;1.10;;
72517;SDS011;60540;51.178;6.738;2022-08-21T14:10:59;4.25;;;1.08;;
72517;SDS011;60540;51.178;6.738;2022-08-21T14:13:44;2.50;;;0.80;;
72517;SDS011;60540;51.178;6.738;2022-08-21T14:16:25;3.88;;;1.15;;
72517;SDS011;60540;51.178;6.738;2022-08-21T14:19:07;2.47;;;0.90;;
72517;SDS011;60540;51.178;6.738;2022-08-21T14:21:37;4.18;;;1.30;;
72517;SDS011;60540;51.178;6.738;2022-08-21T14:24:10;4.22;;;1.00;;
72517;SDS011;60540;51.178;6.738;2022-08-21T14:26:45;3.78;;;0.90;;
72517;SDS011;60540;51.178;6.738;2022-08-21T14:29:19;2.28;;;0.90;;
72517;SDS011;60540;51.178;6.738;2022-08-21T14:31:51;3.50;;;1.20;;
72517;SDS011;60540;51.178;6.738;2022-08-21T14:34:19;3.67;;;1.00;;
72517;SDS011;60540;51.178;6.738;2022-08-21T14:36:46;3.90;;;1.20;;
72517;SDS011;60540;51.178;6.738;2022-08-21T14:39:12;3.90;;;1.23;;
72517;SDS011;60540;51.178;6.738;2022-08-21T14:41:38;4.20;;;1.10;;
72517;SDS011;60540;51.178;6.738;2022-08-21T14:46:30;3.05;;;1.17;;
72517;SDS011;60540;51.178;6.738;2022-08-21T14:48:57;3.95;;;1.05;;
72517;SDS011;60540;51.178;6.738;2022-08-21T14:51:23;3.58;;;1.20;;
72517;SDS011;60540;51.178;6.738;2022-08-21T14:53:49;2.38;;;1.08;;
72517;SDS011;60540;51.178;6.738;2022-08-21T14:58:42;2.83;;;1.05;;
72517;SDS011;60540;51.178;6.738;2022-08-21T15:01:10;4.82;;;1.27;;
72517;SDS011;60540;51.178;6.738;2022-08-21T15:03:37;3.45;;;1.13;;
72517;SDS011;60540;51.178;6.738;2022-08-21T15:08:30;4.50;;;1.38;;
72517;SDS011;60540;51.178;6.738;2022-08-21T15:10:55;2.97;;;0.90;;
72517;SDS011;60540;51.178;6.738;2022-08-21T15:13:21;1.92;;;0.98;;
72517;SDS011;60540;51.178;6.738;2022-08-21T15:15:47;3.95;;;1.20;;
72517;SDS011;60540;51.178;6.738;2022-08-21T15:18:14;3.17;;;1.00;;
72517;SDS011;60540;51.178;6.738;2022-08-21T15:23:06;3.67;;;1.20;;
72517;SDS011;60540;51.178;6.738;2022-08-21T15:25:32;3.28;;;1.23;;
72517;SDS011;60540;51.178;6.738;2022-08-21T15:27:59;2.60;;;1.00;;
72517;SDS011;60540;51.178;6.738;2022-08-21T15:30:26;2.28;;;1.10;;
72517;SDS011;60540;51.178;6.738;2022-08-21T15:32:52;3.95;;;1.13;;
72517;SDS011;60540;51.178;6.738;2022-08-21T15:35:18;3.92;;;1.05;;
72517;SDS011;60540;51.178;6.738;2022-08-21T15:37:43;5.47;;;1.15;;
72517;SDS011;60540;51.178;6.738;2022-08-21T15:42:35;2.83;;;0.85;;
72517;SDS011;60540;51.178;6.738;2022-08-21T15:47:30;3.63;;;1.15;;
72517;SDS011;60540;51.178;6.738;2022-08-21T15:49:58;2.10;;;0.85;;
72517;SDS011;60540;51.178;6.738;2022-08-21T15:52:24;4.65;;;1.20;;
72517;SDS011;60540;51.178;6.738;2022-08-21T15:57:17;3.38;;;1.10;;
72517;SDS011;60540;51.178;6.738;2022-08-21T15:59:47;3.45;;;1.20;;
72517;SDS011;60540;51.178;6.738;2022-08-21T16:02:21;3.03;;;1.30;;
72517;SDS011;60540;51.178;6.738;2022-08-21T16:04:56;2.90;;;1.15;;
72517;SDS011;60540;51.178;6.738;2022-08-21T16:07:22;3.35;;;1.08;;
72517;SDS011;60540;51.178;6.738;2022-08-21T16:09:47;5.45;;;1.10;;
72517;SDS011;60540;51.178;6.738;2022-08-21T16:14:42;4.55;;;1.00;;
72517;SDS011;60540;51.178;6.738;2022-08-21T16:17:08;4.95;;;1.10;;
72517;SDS011;60540;51.178;6.738;2022-08-21T16:19:34;3.70;;;1.02;;
72517;SDS011;60540;51.178;6.738;2022-08-21T16:22:00;2.45;;;0.82;;
72517;SDS011;60540;51.178;6.738;2022-08-21T16:24:26;3.58;;;1.35;;
72517;SDS011;60540;51.178;6.738;2022-08-21T16:29:17;2.60;;;1.02;;
72517;SDS011;60540;51.178;6.738;2022-08-21T16:31:43;3.30;;;1.10;;
72517;SDS011;60540;51.178;6.738;2022-08-21T16:34:11;3.75;;;1.17;;
72517;SDS011;60540;51.178;6.738;2022-08-21T16:36:40;4.57;;;1.23;;
72517;SDS011;60540;51.178;6.738;2022-08-21T16:39:06;9.38;;;1.30;;
72517;SDS011;60540;51.178;6.738;2022-08-21T16:43:58;3.17;;;1.30;;
72517;SDS011;60540;51.178;6.738;2022-08-21T16:46:25;2.63;;;1.00;;
72517;SDS011;60540;51.178;6.738;2022-08-21T16:48:52;4.30;;;1.40;;
72517;SDS011;60540;51.178;6.738;2022-08-21T16:53:43;3.55;;;1.08;;
72517;SDS011;60540;51.178;6.738;2022-08-21T16:56:09;3.35;;;1.60;;
72517;SDS011;60540;51.178;6.738;2022-08-21T16:58:38;4.60;;;1.10;;
72517;SDS011;60540;51.178;6.738;2022-08-21T17:01:05;2.65;;;1.13;;
72517;SDS011;60540;51.178;6.738;2022-08-21T17:03:36;4.85;;;1.23;;
72517;SDS011;60540;51.178;6.738;2022-08-21T17:06:03;1.98;;;1.15;;